Погода Подселына неделю

Могилёвская область, Белоруссия

24 - 30 мая
  • 24мая
    Сегодня
    +11°
    +23°
    Ясно и безоблачно
    ВремяПогодаТемператураВлажностьДавлениеВетер, м/сВероятность осадков
    00:00Ясно и безоблачно+16°C52 %755 мм5.2 м/с2 %
    03:00Ясно и безоблачно+13°C55 %755 мм4.5 м/с2 %
    06:00Ясно и безоблачно+12°C57 %756 мм4.5 м/с2 %
    09:00Ясно и безоблачно+16°C48 %757 мм5.0 м/с2 %
    12:00Ясно и безоблачно+21°C42 %757 мм5.1 м/с2 %
    15:00Ясно и безоблачно+22°C38 %757 мм4.9 м/с2 %
    18:00Ясно и безоблачно+22°C40 %756 мм4.8 м/с2 %
    21:00Ясно и безоблачно+18°C51 %756 мм3.9 м/с2 %
  • 25мая
    Суббота
    +9°
    +24°
    Ясно и безоблачно
    ВремяПогодаТемператураВлажностьДавлениеВетер, м/сВероятность осадков
    00:00Ясно и безоблачно+14°C58 %757 мм3.9 м/с2 %
    03:00Ясно и безоблачно+13°C65 %756 мм3.7 м/с2 %
    06:00Ясно и безоблачно+12°C67 %757 мм3.2 м/с2 %
    09:00Ясно и безоблачно+17°C55 %757 мм3.2 м/с2 %
    12:00Ясно и безоблачно+23°C42 %756 мм3.5 м/с2 %
    15:00Ясно и безоблачно+24°C35 %756 мм3.9 м/с2 %
    18:00Ясно и безоблачно+23°C37 %755 мм3.6 м/с2 %
    21:00Ясно и безоблачно+17°C60 %754 мм2.3 м/с2 %
  • 26мая
    Воскресенье
    +11°
    +25°
    Облачно с прояснениями
    ВремяПогодаТемператураВлажностьДавлениеВетер, м/сВероятность осадков
    00:00Практически безоблачно+14°C68 %755 мм2.6 м/с2 %
    03:00Практически безоблачно+11°C74 %754 мм2.4 м/с2 %
    06:00Облачно с прояснениями+12°C75 %754 мм1.1 м/с2 %
    09:00Облачно с прояснениями+18°C55 %755 мм1.2 м/с2 %
    12:00Небольшая облачность+23°C36 %755 мм2.4 м/с2 %
    15:00Облачно с прояснениями+25°C31 %754 мм2.6 м/с2 %
    18:00Ясно и безоблачно+25°C31 %753 мм2.4 м/с2 %
    21:00Ясно и безоблачно+21°C41 %753 мм1.1 м/с2 %
  • 27мая
    Понедельник
    +13°
    +27°
    Практически безоблачно
    ВремяПогодаТемператураВлажностьДавлениеВетер, м/сВероятность осадков
    00:00Ясно и безоблачно+16°C66 %753 мм1.8 м/с2 %
    03:00Ясно и безоблачно+13°C82 %754 мм1.7 м/с2 %
    06:00Ясно и безоблачно+13°C84 %754 мм1.7 м/с2 %
    09:00Ясно и безоблачно+20°C61 %755 мм1.3 м/с2 %
    12:00Практически безоблачно+25°C40 %755 мм1.9 м/с11 %
    15:00Практически безоблачно+26°C38 %754 мм1.3 м/с22 %
    18:00Небольшая облачность и лёгкий дождик+26°C40 %754 мм1.4 м/с33 %
    21:00Практически безоблачно+21°C60 %754 мм3.2 м/с8 %
  • 28мая
    Вторник
    +13°
    +26°
    Ясно и безоблачно
    ВремяПогодаТемператураВлажностьДавлениеВетер, м/сВероятность осадков
    00:00Ясно и безоблачно+17°C77 %754 мм2.9 м/с2 %
    03:00Ясно и безоблачно+15°C75 %754 мм2.9 м/с2 %
    06:00Практически безоблачно+15°C67 %755 мм3.4 м/с2 %
    09:00Ясно и безоблачно+20°C53 %755 мм3.3 м/с2 %
    12:00Ясно и безоблачно+24°C40 %755 мм4.0 м/с2 %
    15:00Ясно и безоблачно+25°C40 %754 мм3.4 м/с2 %
    18:00Ясно и безоблачно+25°C42 %753 мм3.2 м/с4 %
    21:00Ясно и безоблачно+20°C63 %752 мм2.2 м/с2 %
Мы используем cookies
Соглашаюсь